Ninaview, Colorado
Current Conditions -  °F | °C
As of 7:53 PM on Saturday 22 Nov 2014 (Local Time) from KLHX Reporting Station
Clear Clear  
Wind Chill: 11°   Ceiling: Unl
Heat Index: 11°   Visibility: 10mi
Dew Point: -3°   Wind: 18mph
Humidity: 37%   Direction: 250°WSW
Pressure: 29.53"   Gusts: NA
Location:  37.8567°N, 103.111°W
Report Text: KLHX 230253Z AUTO 25016KT 10SM CLR 11/M03 A2953 RMK AO2 SLP983 T01111033 56007 $
Loading
Personal Weather Stations






























Interactive Weather Map New forecast layout! Learn more

10-Day Weather Forecast

Advertisements
Track Severe Weather on mobile